sensor_id;sensor_type;location;lat;lon;timestamp;temperature;humidity
17092;DHT22;8661;45.700;4.880;2023-11-21T00:01:56;8.20;99.90
17092;DHT22;8661;45.700;4.880;2023-11-21T00:04:24;8.10;99.90
17092;DHT22;8661;45.700;4.880;2023-11-21T00:06:58;8.10;99.90
17092;DHT22;8661;45.700;4.880;2023-11-21T00:09:25;8.20;99.90
17092;DHT22;8661;45.700;4.880;2023-11-21T00:11:53;8.20;99.90
17092;DHT22;8661;45.700;4.880;2023-11-21T00:14:21;8.20;99.90
17092;DHT22;8661;45.700;4.880;2023-11-21T00:16:49;8.20;99.90
17092;DHT22;8661;45.700;4.880;2023-11-21T00:19:17;8.20;99.90
17092;DHT22;8661;45.700;4.880;2023-11-21T00:21:44;8.10;99.90
17092;DHT22;8661;45.700;4.880;2023-11-21T00:24:13;8.10;99.90
17092;DHT22;8661;45.700;4.880;2023-11-21T00:26:44;8.10;99.90
17092;DHT22;8661;45.700;4.880;2023-11-21T00:29:11;8.00;99.90
17092;DHT22;8661;45.700;4.880;2023-11-21T00:31:46;8.00;99.90
17092;DHT22;8661;45.700;4.880;2023-11-21T00:34:13;7.90;99.90
17092;DHT22;8661;45.700;4.880;2023-11-21T00:36:46;7.90;99.90
17092;DHT22;8661;45.700;4.880;2023-11-21T00:39:14;7.90;99.90
17092;DHT22;8661;45.700;4.880;2023-11-21T00:41:41;8.00;99.90
17092;DHT22;8661;45.700;4.880;2023-11-21T00:44:12;8.00;99.90
17092;DHT22;8661;45.700;4.880;2023-11-21T00:46:42;8.00;99.90
17092;DHT22;8661;45.700;4.880;2023-11-21T00:49:09;8.10;99.90
17092;DHT22;8661;45.700;4.880;2023-11-21T00:51:42;8.10;99.90
17092;DHT22;8661;45.700;4.880;2023-11-21T00:54:09;8.20;99.90
17092;DHT22;8661;45.700;4.880;2023-11-21T00:56:52;8.30;99.90
17092;DHT22;8661;45.700;4.880;2023-11-21T00:59:21;8.30;99.90
17092;DHT22;8661;45.700;4.880;2023-11-21T01:01:50;8.40;99.90
17092;DHT22;8661;45.700;4.880;2023-11-21T01:04:19;8.40;99.90
17092;DHT22;8661;45.700;4.880;2023-11-21T01:06:46;8.40;99.90
17092;DHT22;8661;45.700;4.880;2023-11-21T01:09:13;8.50;99.90
17092;DHT22;8661;45.700;4.880;2023-11-21T01:11:44;8.50;99.90
17092;DHT22;8661;45.700;4.880;2023-11-21T01:14:13;8.50;99.90
17092;DHT22;8661;45.700;4.880;2023-11-21T01:16:40;8.60;99.90
17092;DHT22;8661;45.700;4.880;2023-11-21T01:19:14;8.60;99.90
17092;DHT22;8661;45.700;4.880;2023-11-21T01:21:42;8.70;99.90
17092;DHT22;8661;45.700;4.880;2023-11-21T01:24:11;8.70;99.90
17092;DHT22;8661;45.700;4.880;2023-11-21T01:26:39;8.70;99.90
17092;DHT22;8661;45.700;4.880;2023-11-21T01:29:07;8.70;99.90
17092;DHT22;8661;45.700;4.880;2023-11-21T01:31:37;8.70;99.90
17092;DHT22;8661;45.700;4.880;2023-11-21T01:34:05;8.80;99.90
17092;DHT22;8661;45.700;4.880;2023-11-21T01:36:33;8.80;99.90
17092;DHT22;8661;45.700;4.880;2023-11-21T01:39:02;8.90;99.90
17092;DHT22;8661;45.700;4.880;2023-11-21T01:41:35;8.90;99.90
17092;DHT22;8661;45.700;4.880;2023-11-21T01:44:04;8.90;99.90
17092;DHT22;8661;45.700;4.880;2023-11-21T01:46:33;9.00;99.90
17092;DHT22;8661;45.700;4.880;2023-11-21T01:49:10;9.00;99.90
17092;DHT22;8661;45.700;4.880;2023-11-21T01:51:56;9.00;99.90
17092;DHT22;8661;45.700;4.880;2023-11-21T01:54:25;9.00;99.90
17092;DHT22;8661;45.700;4.880;2023-11-21T01:56:55;9.00;99.90
17092;DHT22;8661;45.700;4.880;2023-11-21T01:59:35;9.10;99.90
17092;DHT22;8661;45.700;4.880;2023-11-21T02:02:03;9.10;99.90
17092;DHT22;8661;45.700;4.880;2023-11-21T02:04:33;9.10;99.90
17092;DHT22;8661;45.700;4.880;2023-11-21T02:07:02;9.10;99.90
17092;DHT22;8661;45.700;4.880;2023-11-21T02:09:31;9.10;99.90
17092;DHT22;8661;45.700;4.880;2023-11-21T02:11:59;9.20;99.90
17092;DHT22;8661;45.700;4.880;2023-11-21T02:14:30;9.20;99.90
17092;DHT22;8661;45.700;4.880;2023-11-21T02:16:57;9.10;99.90
17092;DHT22;8661;45.700;4.880;2023-11-21T02:19:27;9.20;99.90
17092;DHT22;8661;45.700;4.880;2023-11-21T02:21:57;9.20;99.90
17092;DHT22;8661;45.700;4.880;2023-11-21T02:24:36;9.20;99.90
17092;DHT22;8661;45.700;4.880;2023-11-21T02:27:05;9.20;99.90
17092;DHT22;8661;45.700;4.880;2023-11-21T02:29:44;9.20;99.90
17092;DHT22;8661;45.700;4.880;2023-11-21T02:32:19;9.20;99.90
17092;DHT22;8661;45.700;4.880;2023-11-21T02:34:48;9.10;99.90
17092;DHT22;8661;45.700;4.880;2023-11-21T02:37:34;9.20;99.90
17092;DHT22;8661;45.700;4.880;2023-11-21T02:40:18;9.20;99.90
17092;DHT22;8661;45.700;4.880;2023-11-21T02:42:50;9.20;99.90
17092;DHT22;8661;45.700;4.880;2023-11-21T02:45:21;9.20;99.90
17092;DHT22;8661;45.700;4.880;2023-11-21T02:47:52;9.20;99.90
17092;DHT22;8661;45.700;4.880;2023-11-21T02:50:26;9.20;99.90
17092;DHT22;8661;45.700;4.880;2023-11-21T02:53:00;9.20;99.90
17092;DHT22;8661;45.700;4.880;2023-11-21T02:55:31;9.20;99.90
17092;DHT22;8661;45.700;4.880;2023-11-21T02:58:02;9.20;99.90
17092;DHT22;8661;45.700;4.880;2023-11-21T03:00:30;9.10;99.90
17092;DHT22;8661;45.700;4.880;2023-11-21T03:03:04;9.10;99.90
17092;DHT22;8661;45.700;4.880;2023-11-21T03:05:33;9.10;99.90
17092;DHT22;8661;45.700;4.880;2023-11-21T03:08:01;9.10;99.90
17092;DHT22;8661;45.700;4.880;2023-11-21T03:10:28;9.10;99.90
17092;DHT22;8661;45.700;4.880;2023-11-21T03:12:56;9.10;99.90
17092;DHT22;8661;45.700;4.880;2023-11-21T03:15:25;9.10;99.90
17092;DHT22;8661;45.700;4.880;2023-11-21T03:17:53;9.10;99.90
17092;DHT22;8661;45.700;4.880;2023-11-21T03:20:22;9.10;99.90
17092;DHT22;8661;45.700;4.880;2023-11-21T03:22:52;9.10;99.90
17092;DHT22;8661;45.700;4.880;2023-11-21T03:25:19;9.10;99.90
17092;DHT22;8661;45.700;4.880;2023-11-21T03:27:49;9.10;99.90
17092;DHT22;8661;45.700;4.880;2023-11-21T03:30:20;9.10;99.90
17092;DHT22;8661;45.700;4.880;2023-11-21T03:32:49;9.10;99.90
17092;DHT22;8661;45.700;4.880;2023-11-21T03:35:17;9.10;99.90
17092;DHT22;8661;45.700;4.880;2023-11-21T03:37:46;9.10;99.90
17092;DHT22;8661;45.700;4.880;2023-11-21T03:40:13;9.10;99.90
17092;DHT22;8661;45.700;4.880;2023-11-21T03:42:40;9.10;99.90
17092;DHT22;8661;45.700;4.880;2023-11-21T03:45:08;9.10;99.90
17092;DHT22;8661;45.700;4.880;2023-11-21T03:47:43;9.10;99.90
17092;DHT22;8661;45.700;4.880;2023-11-21T03:50:10;9.00;99.90
17092;DHT22;8661;45.700;4.880;2023-11-21T03:52:37;9.00;99.90
17092;DHT22;8661;45.700;4.880;2023-11-21T03:55:04;9.00;99.90
17092;DHT22;8661;45.700;4.880;2023-11-21T03:57:37;9.00;99.90
17092;DHT22;8661;45.700;4.880;2023-11-21T04:00:18;9.00;99.90
17092;DHT22;8661;45.700;4.880;2023-11-21T04:02:48;9.00;99.90
17092;DHT22;8661;45.700;4.880;2023-11-21T04:05:17;9.00;99.90
17092;DHT22;8661;45.700;4.880;2023-11-21T04:08:08;9.00;99.90
17092;DHT22;8661;45.700;4.880;2023-11-21T04:10:35;9.00;99.90
17092;DHT22;8661;45.700;4.880;2023-11-21T04:13:07;9.00;99.90
17092;DHT22;8661;45.700;4.880;2023-11-21T04:15:34;9.00;99.90
17092;DHT22;8661;45.700;4.880;2023-11-21T04:18:02;9.00;99.90
17092;DHT22;8661;45.700;4.880;2023-11-21T04:20:29;9.00;99.90
17092;DHT22;8661;45.700;4.880;2023-11-21T04:22:58;9.00;99.90
17092;DHT22;8661;45.700;4.880;2023-11-21T04:25:25;9.00;99.90
17092;DHT22;8661;45.700;4.880;2023-11-21T04:27:59;8.90;99.90
17092;DHT22;8661;45.700;4.880;2023-11-21T04:30:32;8.90;99.90
17092;DHT22;8661;45.700;4.880;2023-11-21T04:32:59;9.00;99.90
17092;DHT22;8661;45.700;4.880;2023-11-21T04:35:30;8.90;99.90
17092;DHT22;8661;45.700;4.880;2023-11-21T04:37:58;9.00;99.90
17092;DHT22;8661;45.700;4.880;2023-11-21T04:40:27;9.00;99.90
17092;DHT22;8661;45.700;4.880;2023-11-21T04:42:54;9.00;99.90
17092;DHT22;8661;45.700;4.880;2023-11-21T04:45:27;9.00;99.90
17092;DHT22;8661;45.700;4.880;2023-11-21T04:47:58;8.90;99.90
17092;DHT22;8661;45.700;4.880;2023-11-21T04:50:25;9.00;99.90
17092;DHT22;8661;45.700;4.880;2023-11-21T04:52:54;9.00;99.90
17092;DHT22;8661;45.700;4.880;2023-11-21T04:55:21;8.90;99.90
17092;DHT22;8661;45.700;4.880;2023-11-21T04:57:48;8.90;99.90
17092;DHT22;8661;45.700;4.880;2023-11-21T05:00:22;8.90;99.90
17092;DHT22;8661;45.700;4.880;2023-11-21T05:02:52;8.90;99.90
17092;DHT22;8661;45.700;4.880;2023-11-21T05:05:19;8.90;99.90
17092;DHT22;8661;45.700;4.880;2023-11-21T05:07:46;8.90;99.90
17092;DHT22;8661;45.700;4.880;2023-11-21T05:10:20;8.90;99.90
17092;DHT22;8661;45.700;4.880;2023-11-21T05:12:49;8.90;99.90
17092;DHT22;8661;45.700;4.880;2023-11-21T05:15:17;8.90;99.90
17092;DHT22;8661;45.700;4.880;2023-11-21T05:17:46;8.90;99.90
17092;DHT22;8661;45.700;4.880;2023-11-21T05:20:17;8.90;99.90
17092;DHT22;8661;45.700;4.880;2023-11-21T05:22:46;8.90;99.90
17092;DHT22;8661;45.700;4.880;2023-11-21T05:25:19;9.00;99.90
17092;DHT22;8661;45.700;4.880;2023-11-21T05:27:47;9.00;99.90
17092;DHT22;8661;45.700;4.880;2023-11-21T05:30:14;9.00;99.90
17092;DHT22;8661;45.700;4.880;2023-11-21T05:32:44;9.00;99.90
17092;DHT22;8661;45.700;4.880;2023-11-21T05:35:15;9.00;99.90
17092;DHT22;8661;45.700;4.880;2023-11-21T05:37:42;8.90;99.90
17092;DHT22;8661;45.700;4.880;2023-11-21T05:40:12;8.90;99.90
17092;DHT22;8661;45.700;4.880;2023-11-21T05:42:53;8.90;99.90
17092;DHT22;8661;45.700;4.880;2023-11-21T05:45:24;9.00;99.90
17092;DHT22;8661;45.700;4.880;2023-11-21T05:47:53;9.00;99.90
17092;DHT22;8661;45.700;4.880;2023-11-21T05:50:21;8.90;99.90
17092;DHT22;8661;45.700;4.880;2023-11-21T05:52:48;9.00;99.90
17092;DHT22;8661;45.700;4.880;2023-11-21T05:55:15;9.00;99.90
17092;DHT22;8661;45.700;4.880;2023-11-21T05:57:44;9.00;99.90
17092;DHT22;8661;45.700;4.880;2023-11-21T06:00:16;9.00;99.90
17092;DHT22;8661;45.700;4.880;2023-11-21T06:04:15;8.90;99.90
17092;DHT22;8661;45.700;4.880;2023-11-21T06:06:15;8.90;99.90
17092;DHT22;8661;45.700;4.880;2023-11-21T06:09:03;8.90;99.90
17092;DHT22;8661;45.700;4.880;2023-11-21T06:11:34;8.90;99.90
17092;DHT22;8661;45.700;4.880;2023-11-21T06:14:03;8.90;99.90
17092;DHT22;8661;45.700;4.880;2023-11-21T06:16:37;8.90;99.90
17092;DHT22;8661;45.700;4.880;2023-11-21T06:19:08;8.90;99.90
17092;DHT22;8661;45.700;4.880;2023-11-21T06:21:36;8.90;99.90
17092;DHT22;8661;45.700;4.880;2023-11-21T06:24:04;8.90;99.90
17092;DHT22;8661;45.700;4.880;2023-11-21T06:26:37;8.90;99.90
17092;DHT22;8661;45.700;4.880;2023-11-21T06:29:26;9.00;99.90
17092;DHT22;8661;45.700;4.880;2023-11-21T06:32:25;9.00;99.90
17092;DHT22;8661;45.700;4.880;2023-11-21T06:35:10;8.90;99.90
17092;DHT22;8661;45.700;4.880;2023-11-21T06:37:58;9.00;99.90
17092;DHT22;8661;45.700;4.880;2023-11-21T06:40:31;9.00;99.90
17092;DHT22;8661;45.700;4.880;2023-11-21T06:43:03;8.90;99.90
17092;DHT22;8661;45.700;4.880;2023-11-21T06:45:57;8.90;99.90
17092;DHT22;8661;45.700;4.880;2023-11-21T06:48:35;8.90;99.90
17092;DHT22;8661;45.700;4.880;2023-11-21T06:51:08;8.90;99.90
17092;DHT22;8661;45.700;4.880;2023-11-21T06:53:36;8.90;99.90
17092;DHT22;8661;45.700;4.880;2023-11-21T06:56:03;9.00;99.90
17092;DHT22;8661;45.700;4.880;2023-11-21T06:58:32;9.00;99.90
17092;DHT22;8661;45.700;4.880;2023-11-21T07:00:59;9.10;99.90
17092;DHT22;8661;45.700;4.880;2023-11-21T07:03:27;9.10;99.90
17092;DHT22;8661;45.700;4.880;2023-11-21T07:05:54;9.10;99.90
17092;DHT22;8661;45.700;4.880;2023-11-21T07:08:21;9.10;99.90
17092;DHT22;8661;45.700;4.880;2023-11-21T07:11:03;9.10;99.90
17092;DHT22;8661;45.700;4.880;2023-11-21T07:13:32;9.20;99.90
17092;DHT22;8661;45.700;4.880;2023-11-21T07:15:59;9.20;99.90
17092;DHT22;8661;45.700;4.880;2023-11-21T07:18:27;9.30;99.90
17092;DHT22;8661;45.700;4.880;2023-11-21T07:20:54;9.30;99.90
17092;DHT22;8661;45.700;4.880;2023-11-21T07:23:21;9.30;99.90
17092;DHT22;8661;45.700;4.880;2023-11-21T07:25:49;9.30;99.90
17092;DHT22;8661;45.700;4.880;2023-11-21T07:28:16;9.40;99.90
17092;DHT22;8661;45.700;4.880;2023-11-21T07:30:42;9.40;99.90
17092;DHT22;8661;45.700;4.880;2023-11-21T07:33:10;9.40;99.90
17092;DHT22;8661;45.700;4.880;2023-11-21T07:35:40;9.40;99.90
17092;DHT22;8661;45.700;4.880;2023-11-21T07:38:10;9.40;99.90
17092;DHT22;8661;45.700;4.880;2023-11-21T07:40:37;9.40;99.90
17092;DHT22;8661;45.700;4.880;2023-11-21T07:43:03;9.40;99.90
17092;DHT22;8661;45.700;4.880;2023-11-21T07:45:31;9.50;99.90
17092;DHT22;8661;45.700;4.880;2023-11-21T07:47:58;9.50;99.90
17092;DHT22;8661;45.700;4.880;2023-11-21T07:50:26;9.50;99.90
17092;DHT22;8661;45.700;4.880;2023-11-21T07:52:54;9.50;99.90
17092;DHT22;8661;45.700;4.880;2023-11-21T07:55:21;9.60;99.90
17092;DHT22;8661;45.700;4.880;2023-11-21T07:57:50;9.60;99.90
17092;DHT22;8661;45.700;4.880;2023-11-21T08:00:19;9.60;99.90
17092;DHT22;8661;45.700;4.880;2023-11-21T08:02:46;9.60;99.90
17092;DHT22;8661;45.700;4.880;2023-11-21T08:05:13;9.60;99.90
17092;DHT22;8661;45.700;4.880;2023-11-21T08:07:41;9.60;99.90
17092;DHT22;8661;45.700;4.880;2023-11-21T08:10:09;9.70;99.90
17092;DHT22;8661;45.700;4.880;2023-11-21T08:12:37;9.70;99.90
17092;DHT22;8661;45.700;4.880;2023-11-21T08:15:05;9.80;99.90
17092;DHT22;8661;45.700;4.880;2023-11-21T08:17:33;9.90;99.90
17092;DHT22;8661;45.700;4.880;2023-11-21T08:20:00;10.00;99.90
17092;DHT22;8661;45.700;4.880;2023-11-21T08:22:29;10.00;99.90
17092;DHT22;8661;45.700;4.880;2023-11-21T08:24:57;10.10;99.90
17092;DHT22;8661;45.700;4.880;2023-11-21T08:27:25;10.20;99.90
17092;DHT22;8661;45.700;4.880;2023-11-21T08:29:52;10.10;99.90
17092;DHT22;8661;45.700;4.880;2023-11-21T08:32:20;10.10;99.90
17092;DHT22;8661;45.700;4.880;2023-11-21T08:34:47;10.20;99.90
17092;DHT22;8661;45.700;4.880;2023-11-21T08:37:16;10.30;99.90
17092;DHT22;8661;45.700;4.880;2023-11-21T08:39:43;10.30;99.90
17092;DHT22;8661;45.700;4.880;2023-11-21T08:42:10;10.50;99.90
17092;DHT22;8661;45.700;4.880;2023-11-21T08:44:38;10.60;99.90
17092;DHT22;8661;45.700;4.880;2023-11-21T08:47:05;10.70;99.90
17092;DHT22;8661;45.700;4.880;2023-11-21T08:49:32;10.70;99.90
17092;DHT22;8661;45.700;4.880;2023-11-21T08:51:59;10.80;99.90
17092;DHT22;8661;45.700;4.880;2023-11-21T08:54:28;10.90;99.90
17092;DHT22;8661;45.700;4.880;2023-11-21T08:56:58;10.90;99.90
17092;DHT22;8661;45.700;4.880;2023-11-21T09:00:32;10.90;99.90
17092;DHT22;8661;45.700;4.880;2023-11-21T09:02:46;10.80;99.90
17092;DHT22;8661;45.700;4.880;2023-11-21T09:05:14;10.80;99.90
17092;DHT22;8661;45.700;4.880;2023-11-21T09:07:42;10.80;99.90
17092;DHT22;8661;45.700;4.880;2023-11-21T09:10:13;10.80;99.90
17092;DHT22;8661;45.700;4.880;2023-11-21T09:12:40;10.80;99.90
17092;DHT22;8661;45.700;4.880;2023-11-21T09:15:09;10.90;99.90
17092;DHT22;8661;45.700;4.880;2023-11-21T09:17:40;10.90;99.90
17092;DHT22;8661;45.700;4.880;2023-11-21T09:20:10;10.80;99.90
17092;DHT22;8661;45.700;4.880;2023-11-21T09:22:39;10.80;99.90
17092;DHT22;8661;45.700;4.880;2023-11-21T09:25:10;10.70;99.90
17092;DHT22;8661;45.700;4.880;2023-11-21T09:27:38;10.70;99.90
17092;DHT22;8661;45.700;4.880;2023-11-21T09:30:10;10.60;99.90
17092;DHT22;8661;45.700;4.880;2023-11-21T09:32:40;10.60;99.90
17092;DHT22;8661;45.700;4.880;2023-11-21T09:35:09;10.50;99.90
17092;DHT22;8661;45.700;4.880;2023-11-21T09:37:38;10.50;99.90
17092;DHT22;8661;45.700;4.880;2023-11-21T09:40:10;10.40;99.90
17092;DHT22;8661;45.700;4.880;2023-11-21T09:42:50;10.40;99.90
17092;DHT22;8661;45.700;4.880;2023-11-21T09:45:25;10.50;99.90
17092;DHT22;8661;45.700;4.880;2023-11-21T09:47:53;10.60;99.90
17092;DHT22;8661;45.700;4.880;2023-11-21T09:50:23;10.70;99.90
17092;DHT22;8661;45.700;4.880;2023-11-21T09:52:57;10.90;99.90
17092;DHT22;8661;45.700;4.880;2023-11-21T09:55:27;11.00;99.90
17092;DHT22;8661;45.700;4.880;2023-11-21T09:57:56;11.30;99.90
17092;DHT22;8661;45.700;4.880;2023-11-21T10:00:23;11.40;99.90
17092;DHT22;8661;45.700;4.880;2023-11-21T10:02:52;11.40;99.90
17092;DHT22;8661;45.700;4.880;2023-11-21T10:05:19;11.60;99.90
17092;DHT22;8661;45.700;4.880;2023-11-21T10:07:50;11.70;99.90
17092;DHT22;8661;45.700;4.880;2023-11-21T10:10:20;11.70;99.90
17092;DHT22;8661;45.700;4.880;2023-11-21T10:12:49;11.80;99.90
17092;DHT22;8661;45.700;4.880;2023-11-21T10:15:21;11.90;99.90
17092;DHT22;8661;45.700;4.880;2023-11-21T10:17:49;12.10;99.90
17092;DHT22;8661;45.700;4.880;2023-11-21T10:20:19;12.20;99.90
17092;DHT22;8661;45.700;4.880;2023-11-21T10:22:46;12.50;99.90
17092;DHT22;8661;45.700;4.880;2023-11-21T10:25:15;12.80;99.90
17092;DHT22;8661;45.700;4.880;2023-11-21T10:27:44;13.10;99.90
17092;DHT22;8661;45.700;4.880;2023-11-21T10:30:13;13.10;99.90
17092;DHT22;8661;45.700;4.880;2023-11-21T10:32:41;13.30;99.90
17092;DHT22;8661;45.700;4.880;2023-11-21T10:35:09;13.70;99.90
17092;DHT22;8661;45.700;4.880;2023-11-21T10:37:36;13.90;99.90
17092;DHT22;8661;45.700;4.880;2023-11-21T10:40:06;14.30;99.90
17092;DHT22;8661;45.700;4.880;2023-11-21T10:42:36;14.40;99.90
17092;DHT22;8661;45.700;4.880;2023-11-21T10:45:04;14.40;99.90
17092;DHT22;8661;45.700;4.880;2023-11-21T10:47:35;14.20;99.90
17092;DHT22;8661;45.700;4.880;2023-11-21T10:50:04;14.10;99.90
17092;DHT22;8661;45.700;4.880;2023-11-21T10:52:32;13.90;99.90
17092;DHT22;8661;45.700;4.880;2023-11-21T10:55:01;14.10;99.90
17092;DHT22;8661;45.700;4.880;2023-11-21T10:57:32;14.50;99.90
17092;DHT22;8661;45.700;4.880;2023-11-21T11:00:07;14.80;99.90
17092;DHT22;8661;45.700;4.880;2023-11-21T11:02:39;14.80;99.90
17092;DHT22;8661;45.700;4.880;2023-11-21T11:05:06;14.90;99.90
17092;DHT22;8661;45.700;4.880;2023-11-21T11:07:44;15.50;99.90
17092;DHT22;8661;45.700;4.880;2023-11-21T11:10:14;16.00;99.90
17092;DHT22;8661;45.700;4.880;2023-11-21T11:12:47;16.40;99.90
17092;DHT22;8661;45.700;4.880;2023-11-21T11:15:16;16.70;99.90
17092;DHT22;8661;45.700;4.880;2023-11-21T11:17:43;17.10;99.90
17092;DHT22;8661;45.700;4.880;2023-11-21T11:20:13;18.30;99.90
17092;DHT22;8661;45.700;4.880;2023-11-21T11:22:46;19.60;99.90
17092;DHT22;8661;45.700;4.880;2023-11-21T11:25:30;20.10;99.90
17092;DHT22;8661;45.700;4.880;2023-11-21T11:28:06;20.10;99.90
17092;DHT22;8661;45.700;4.880;2023-11-21T11:30:52;19.00;99.90
17092;DHT22;8661;45.700;4.880;2023-11-21T11:33:31;18.40;99.90
17092;DHT22;8661;45.700;4.880;2023-11-21T11:36:05;17.70;99.90
17092;DHT22;8661;45.700;4.880;2023-11-21T11:38:34;16.70;99.90
17092;DHT22;8661;45.700;4.880;2023-11-21T11:41:03;16.00;99.90
17092;DHT22;8661;45.700;4.880;2023-11-21T11:43:32;15.50;99.90
17092;DHT22;8661;45.700;4.880;2023-11-21T11:52:57;13.90;99.90
17092;DHT22;8661;45.700;4.880;2023-11-21T11:56:22;13.70;99.90
17092;DHT22;8661;45.700;4.880;2023-11-21T11:58:51;13.40;99.90
17092;DHT22;8661;45.700;4.880;2023-11-21T12:01:19;13.50;99.90
17092;DHT22;8661;45.700;4.880;2023-11-21T12:04:24;13.50;99.90
17092;DHT22;8661;45.700;4.880;2023-11-21T12:06:59;13.50;99.90
17092;DHT22;8661;45.700;4.880;2023-11-21T12:09:36;13.40;99.90
17092;DHT22;8661;45.700;4.880;2023-11-21T12:12:22;13.40;99.90
17092;DHT22;8661;45.700;4.880;2023-11-21T12:15:14;13.40;99.90
17092;DHT22;8661;45.700;4.880;2023-11-21T12:18:27;13.40;99.90
17092;DHT22;8661;45.700;4.880;2023-11-21T12:20:56;13.50;99.90
17092;DHT22;8661;45.700;4.880;2023-11-21T12:23:29;13.50;99.90
17092;DHT22;8661;45.700;4.880;2023-11-21T12:26:13;13.30;99.90
17092;DHT22;8661;45.700;4.880;2023-11-21T12:28:44;13.10;99.90
17092;DHT22;8661;45.700;4.880;2023-11-21T12:31:37;13.10;99.90
17092;DHT22;8661;45.700;4.880;2023-11-21T12:34:20;12.90;99.90
17092;DHT22;8661;45.700;4.880;2023-11-21T12:37:02;12.90;99.90
17092;DHT22;8661;45.700;4.880;2023-11-21T12:39:30;12.80;99.90
17092;DHT22;8661;45.700;4.880;2023-11-21T12:42:24;12.90;99.90
17092;DHT22;8661;45.700;4.880;2023-11-21T12:48:18;13.10;99.90
17092;DHT22;8661;45.700;4.880;2023-11-21T12:52:40;12.90;99.90
17092;DHT22;8661;45.700;4.880;2023-11-21T12:54:03;12.70;99.90
17092;DHT22;8661;45.700;4.880;2023-11-21T12:56:44;12.60;99.90
17092;DHT22;8661;45.700;4.880;2023-11-21T13:00:00;12.70;99.90
17092;DHT22;8661;45.700;4.880;2023-11-21T13:02:14;12.90;99.90
17092;DHT22;8661;45.700;4.880;2023-11-21T13:05:04;13.30;99.90
17092;DHT22;8661;45.700;4.880;2023-11-21T13:07:50;13.50;99.90
17092;DHT22;8661;45.700;4.880;2023-11-21T13:10:23;13.50;99.90
17092;DHT22;8661;45.700;4.880;2023-11-21T13:12:58;13.40;99.90
17092;DHT22;8661;45.700;4.880;2023-11-21T13:15:47;13.40;99.90
17092;DHT22;8661;45.700;4.880;2023-11-21T13:18:15;13.40;99.90
17092;DHT22;8661;45.700;4.880;2023-11-21T13:21:03;13.30;99.90
17092;DHT22;8661;45.700;4.880;2023-11-21T13:23:37;13.00;99.90
17092;DHT22;8661;45.700;4.880;2023-11-21T13:26:11;12.70;99.90
17092;DHT22;8661;45.700;4.880;2023-11-21T13:28:40;12.60;99.90
17092;DHT22;8661;45.700;4.880;2023-11-21T13:31:14;12.40;99.90
17092;DHT22;8661;45.700;4.880;2023-11-21T13:33:51;12.40;99.90
17092;DHT22;8661;45.700;4.880;2023-11-21T13:36:21;12.20;99.90
17092;DHT22;8661;45.700;4.880;2023-11-21T13:38:49;12.30;99.90
17092;DHT22;8661;45.700;4.880;2023-11-21T13:41:18;12.20;99.90
17092;DHT22;8661;45.700;4.880;2023-11-21T13:43:45;12.30;99.90
17092;DHT22;8661;45.700;4.880;2023-11-21T13:46:21;12.40;99.90
17092;DHT22;8661;45.700;4.880;2023-11-21T13:49:00;12.50;99.90
17092;DHT22;8661;45.700;4.880;2023-11-21T13:51:35;13.00;99.90
17092;DHT22;8661;45.700;4.880;2023-11-21T13:54:13;13.20;99.90
17092;DHT22;8661;45.700;4.880;2023-11-21T13:56:41;13.00;99.90
17092;DHT22;8661;45.700;4.880;2023-11-21T13:59:10;12.70;99.90
17092;DHT22;8661;45.700;4.880;2023-11-21T14:01:46;12.50;99.90
17092;DHT22;8661;45.700;4.880;2023-11-21T14:04:25;12.20;99.90
17092;DHT22;8661;45.700;4.880;2023-11-21T14:07:12;12.00;99.90
17092;DHT22;8661;45.700;4.880;2023-11-21T14:09:49;11.90;99.90
17092;DHT22;8661;45.700;4.880;2023-11-21T14:12:18;11.80;99.90
17092;DHT22;8661;45.700;4.880;2023-11-21T14:14:45;11.80;99.90
17092;DHT22;8661;45.700;4.880;2023-11-21T14:17:22;11.70;99.90
17092;DHT22;8661;45.700;4.880;2023-11-21T14:19:59;11.60;99.90
17092;DHT22;8661;45.700;4.880;2023-11-21T14:22:30;11.50;99.90
17092;DHT22;8661;45.700;4.880;2023-11-21T14:25:02;11.40;99.90
17092;DHT22;8661;45.700;4.880;2023-11-21T14:27:50;11.30;99.90
17092;DHT22;8661;45.700;4.880;2023-11-21T14:30:19;11.10;99.90
17092;DHT22;8661;45.700;4.880;2023-11-21T14:36:41;10.90;99.90
17092;DHT22;8661;45.700;4.880;2023-11-21T14:38:58;10.90;99.90
17092;DHT22;8661;45.700;4.880;2023-11-21T14:41:25;10.90;99.90
17092;DHT22;8661;45.700;4.880;2023-11-21T14:43:53;10.80;99.90
17092;DHT22;8661;45.700;4.880;2023-11-21T14:46:22;10.80;99.90
17092;DHT22;8661;45.700;4.880;2023-11-21T14:49:09;10.80;99.90
17092;DHT22;8661;45.700;4.880;2023-11-21T14:51:46;10.70;99.90
17092;DHT22;8661;45.700;4.880;2023-11-21T14:54:32;10.60;99.90
17092;DHT22;8661;45.700;4.880;2023-11-21T14:57:08;10.60;99.90
17092;DHT22;8661;45.700;4.880;2023-11-21T14:59:37;10.50;99.90
17092;DHT22;8661;45.700;4.880;2023-11-21T15:02:09;10.50;99.90
17092;DHT22;8661;45.700;4.880;2023-11-21T15:04:47;10.40;99.90
17092;DHT22;8661;45.700;4.880;2023-11-21T15:10:42;10.40;99.90
17092;DHT22;8661;45.700;4.880;2023-11-21T15:13:25;10.40;99.90
17092;DHT22;8661;45.700;4.880;2023-11-21T15:15:55;10.40;99.90
17092;DHT22;8661;45.700;4.880;2023-11-21T15:18:30;10.40;99.90
17092;DHT22;8661;45.700;4.880;2023-11-21T15:21:15;10.40;99.90
17092;DHT22;8661;45.700;4.880;2023-11-21T15:23:50;10.40;99.90
17092;DHT22;8661;45.700;4.880;2023-11-21T15:26:26;10.40;99.90
17092;DHT22;8661;45.700;4.880;2023-11-21T15:28:57;10.40;99.90
17092;DHT22;8661;45.700;4.880;2023-11-21T15:31:24;10.40;99.90
17092;DHT22;8661;45.700;4.880;2023-11-21T15:33:51;10.40;99.90
17092;DHT22;8661;45.700;4.880;2023-11-21T15:36:19;10.30;99.90
17092;DHT22;8661;45.700;4.880;2023-11-21T15:38:50;10.30;99.90
17092;DHT22;8661;45.700;4.880;2023-11-21T15:41:18;10.20;99.90
17092;DHT22;8661;45.700;4.880;2023-11-21T15:43:46;10.10;99.90
17092;DHT22;8661;45.700;4.880;2023-11-21T15:46:15;10.10;99.90
17092;DHT22;8661;45.700;4.880;2023-11-21T15:48:44;10.00;99.90
17092;DHT22;8661;45.700;4.880;2023-11-21T15:51:17;10.00;99.90
17092;DHT22;8661;45.700;4.880;2023-11-21T15:54:18;10.00;99.90
17092;DHT22;8661;45.700;4.880;2023-11-21T15:56:56;9.90;99.90
17092;DHT22;8661;45.700;4.880;2023-11-21T15:59:34;9.80;99.90
17092;DHT22;8661;45.700;4.880;2023-11-21T16:02:04;9.70;99.90
17092;DHT22;8661;45.700;4.880;2023-11-21T16:04:31;9.60;99.90
17092;DHT22;8661;45.700;4.880;2023-11-21T16:06:58;9.60;99.90
17092;DHT22;8661;45.700;4.880;2023-11-21T16:09:25;9.50;99.90
17092;DHT22;8661;45.700;4.880;2023-11-21T16:11:56;9.50;99.90
17092;DHT22;8661;45.700;4.880;2023-11-21T16:14:29;9.40;99.90
17092;DHT22;8661;45.700;4.880;2023-11-21T16:17:01;9.40;99.90
17092;DHT22;8661;45.700;4.880;2023-11-21T16:19:29;9.30;99.90
17092;DHT22;8661;45.700;4.880;2023-11-21T16:21:56;9.30;99.90
17092;DHT22;8661;45.700;4.880;2023-11-21T16:24:23;9.30;99.90
17092;DHT22;8661;45.700;4.880;2023-11-21T16:26:53;9.30;99.90
17092;DHT22;8661;45.700;4.880;2023-11-21T16:29:21;9.20;99.90
17092;DHT22;8661;45.700;4.880;2023-11-21T16:31:53;9.30;99.90
17092;DHT22;8661;45.700;4.880;2023-11-21T16:34:20;9.20;99.90
17092;DHT22;8661;45.700;4.880;2023-11-21T16:36:48;9.30;99.90
17092;DHT22;8661;45.700;4.880;2023-11-21T16:39:15;9.20;99.90
17092;DHT22;8661;45.700;4.880;2023-11-21T16:41:45;9.20;99.90
17092;DHT22;8661;45.700;4.880;2023-11-21T16:44:14;9.10;99.90